sensor_id;sensor_type;location;lat;lon;timestamp;pressure;altitude;pressure_sealevel;temperature
41940;BMP180;23057;48.554;14.454;2023-03-26T00:02:15;93158.00;;;12.00
41940;BMP180;23057;48.554;14.454;2023-03-26T00:04:45;93159.00;;;12.00
41940;BMP180;23057;48.554;14.454;2023-03-26T00:07:16;93157.00;;;12.10
41940;BMP180;23057;48.554;14.454;2023-03-26T00:09:47;93146.00;;;12.10
41940;BMP180;23057;48.554;14.454;2023-03-26T00:12:18;93140.00;;;12.10
41940;BMP180;23057;48.554;14.454;2023-03-26T00:14:48;93137.00;;;12.10
41940;BMP180;23057;48.554;14.454;2023-03-26T00:17:21;93146.00;;;12.10
41940;BMP180;23057;48.554;14.454;2023-03-26T00:19:51;93156.00;;;12.10
41940;BMP180;23057;48.554;14.454;2023-03-26T00:22:22;93159.00;;;12.20
41940;BMP180;23057;48.554;14.454;2023-03-26T00:24:53;93158.00;;;12.20
41940;BMP180;23057;48.554;14.454;2023-03-26T00:27:26;93154.00;;;12.20
41940;BMP180;23057;48.554;14.454;2023-03-26T00:29:58;93156.00;;;12.30
41940;BMP180;23057;48.554;14.454;2023-03-26T00:32:30;93157.00;;;12.30
41940;BMP180;23057;48.554;14.454;2023-03-26T00:35:01;93160.00;;;12.30
41940;BMP180;23057;48.554;14.454;2023-03-26T00:37:33;93146.00;;;12.40
41940;BMP180;23057;48.554;14.454;2023-03-26T00:40:04;93144.00;;;12.40
41940;BMP180;23057;48.554;14.454;2023-03-26T00:42:37;93138.00;;;12.40
41940;BMP180;23057;48.554;14.454;2023-03-26T00:45:08;93132.00;;;12.40
41940;BMP180;23057;48.554;14.454;2023-03-26T00:47:39;93128.00;;;12.50
41940;BMP180;23057;48.554;14.454;2023-03-26T00:50:10;93120.00;;;12.50
41940;BMP180;23057;48.554;14.454;2023-03-26T00:52:44;93115.00;;;12.50
41940;BMP180;23057;48.554;14.454;2023-03-26T00:55:15;93114.00;;;12.60
41940;BMP180;23057;48.554;14.454;2023-03-26T00:57:46;93109.00;;;12.60
41940;BMP180;23057;48.554;14.454;2023-03-26T01:00:17;93111.00;;;12.60
41940;BMP180;23057;48.554;14.454;2023-03-26T01:03:05;93106.00;;;12.70
41940;BMP180;23057;48.554;14.454;2023-03-26T01:09:11;93108.00;;;12.80
41940;BMP180;23057;48.554;14.454;2023-03-26T01:11:45;93116.00;;;12.80
41940;BMP180;23057;48.554;14.454;2023-03-26T01:14:21;93105.00;;;12.80
41940;BMP180;23057;48.554;14.454;2023-03-26T01:16:57;93107.00;;;12.80
41940;BMP180;23057;48.554;14.454;2023-03-26T01:22:26;93109.00;;;12.90
41940;BMP180;23057;48.554;14.454;2023-03-26T01:24:57;93108.00;;;12.90
41940;BMP180;23057;48.554;14.454;2023-03-26T01:27:36;93100.00;;;12.90
41940;BMP180;23057;48.554;14.454;2023-03-26T01:30:32;93096.00;;;13.00
41940;BMP180;23057;48.554;14.454;2023-03-26T01:36:22;93093.00;;;13.10
41940;BMP180;23057;48.554;14.454;2023-03-26T01:39:16;93094.00;;;13.10
41940;BMP180;23057;48.554;14.454;2023-03-26T01:42:06;93088.00;;;13.10
41940;BMP180;23057;48.554;14.454;2023-03-26T01:45:29;93103.00;;;13.20
41940;BMP180;23057;48.554;14.454;2023-03-26T01:47:41;93098.00;;;13.20
41940;BMP180;23057;48.554;14.454;2023-03-26T01:50:13;93103.00;;;13.20
41940;BMP180;23057;48.554;14.454;2023-03-26T01:52:44;93106.00;;;13.20
41940;BMP180;23057;48.554;14.454;2023-03-26T01:55:15;93098.00;;;13.20
41940;BMP180;23057;48.554;14.454;2023-03-26T01:58:07;93100.00;;;13.10
41940;BMP180;23057;48.554;14.454;2023-03-26T02:01:05;93110.00;;;13.10
41940;BMP180;23057;48.554;14.454;2023-03-26T02:03:58;93110.00;;;13.10
41940;BMP180;23057;48.554;14.454;2023-03-26T02:06:42;93098.00;;;13.10
41940;BMP180;23057;48.554;14.454;2023-03-26T02:09:21;93101.00;;;13.10
41940;BMP180;23057;48.554;14.454;2023-03-26T02:11:58;93102.00;;;13.10
41940;BMP180;23057;48.554;14.454;2023-03-26T02:14:33;93099.00;;;13.10
41940;BMP180;23057;48.554;14.454;2023-03-26T02:17:03;93098.00;;;13.10
41940;BMP180;23057;48.554;14.454;2023-03-26T02:19:38;93102.00;;;13.10
41940;BMP180;23057;48.554;14.454;2023-03-26T02:24:52;93094.00;;;13.10
41940;BMP180;23057;48.554;14.454;2023-03-26T02:27:22;93089.00;;;13.10
41940;BMP180;23057;48.554;14.454;2023-03-26T02:29:53;93090.00;;;13.10
41940;BMP180;23057;48.554;14.454;2023-03-26T02:32:24;93081.00;;;13.10
41940;BMP180;23057;48.554;14.454;2023-03-26T02:34:54;93087.00;;;13.10
41940;BMP180;23057;48.554;14.454;2023-03-26T02:37:25;93079.00;;;13.10
41940;BMP180;23057;48.554;14.454;2023-03-26T02:39:56;93088.00;;;13.00
41940;BMP180;23057;48.554;14.454;2023-03-26T02:42:27;93092.00;;;13.00
41940;BMP180;23057;48.554;14.454;2023-03-26T02:44:57;93094.00;;;13.00
41940;BMP180;23057;48.554;14.454;2023-03-26T02:47:28;93088.00;;;13.00
41940;BMP180;23057;48.554;14.454;2023-03-26T02:49:59;93087.00;;;12.90
41940;BMP180;23057;48.554;14.454;2023-03-26T02:52:30;93097.00;;;12.90
41940;BMP180;23057;48.554;14.454;2023-03-26T02:55:03;93091.00;;;12.90
41940;BMP180;23057;48.554;14.454;2023-03-26T02:57:33;93090.00;;;12.90
41940;BMP180;23057;48.554;14.454;2023-03-26T03:00:05;93091.00;;;12.90
41940;BMP180;23057;48.554;14.454;2023-03-26T03:02:38;93088.00;;;12.90
41940;BMP180;23057;48.554;14.454;2023-03-26T03:05:09;93080.00;;;12.90
41940;BMP180;23057;48.554;14.454;2023-03-26T03:07:41;93080.00;;;12.80
41940;BMP180;23057;48.554;14.454;2023-03-26T03:10:12;93078.00;;;12.80
41940;BMP180;23057;48.554;14.454;2023-03-26T03:12:43;93079.00;;;12.80
41940;BMP180;23057;48.554;14.454;2023-03-26T03:15:14;93081.00;;;12.80
41940;BMP180;23057;48.554;14.454;2023-03-26T03:17:45;93075.00;;;12.80
41940;BMP180;23057;48.554;14.454;2023-03-26T03:20:16;93086.00;;;12.70
41940;BMP180;23057;48.554;14.454;2023-03-26T03:22:47;93079.00;;;12.70
41940;BMP180;23057;48.554;14.454;2023-03-26T03:25:18;93072.00;;;12.60
41940;BMP180;23057;48.554;14.454;2023-03-26T03:27:51;93078.00;;;12.60
41940;BMP180;23057;48.554;14.454;2023-03-26T03:30:23;93091.00;;;12.60
41940;BMP180;23057;48.554;14.454;2023-03-26T03:32:54;93085.00;;;12.60
41940;BMP180;23057;48.554;14.454;2023-03-26T03:35:28;93081.00;;;12.60
41940;BMP180;23057;48.554;14.454;2023-03-26T03:37:59;93075.00;;;12.60
41940;BMP180;23057;48.554;14.454;2023-03-26T03:40:30;93078.00;;;12.60
41940;BMP180;23057;48.554;14.454;2023-03-26T03:43:01;93070.00;;;12.50
41940;BMP180;23057;48.554;14.454;2023-03-26T03:45:31;93079.00;;;12.60
41940;BMP180;23057;48.554;14.454;2023-03-26T03:48:03;93069.00;;;12.50
41940;BMP180;23057;48.554;14.454;2023-03-26T03:50:34;93077.00;;;12.50
41940;BMP180;23057;48.554;14.454;2023-03-26T03:53:05;93072.00;;;12.50
41940;BMP180;23057;48.554;14.454;2023-03-26T03:55:35;93070.00;;;12.40
41940;BMP180;23057;48.554;14.454;2023-03-26T03:58:07;93078.00;;;12.40
41940;BMP180;23057;48.554;14.454;2023-03-26T04:00:38;93063.00;;;12.30
41940;BMP180;23057;48.554;14.454;2023-03-26T04:03:10;93074.00;;;12.30
41940;BMP180;23057;48.554;14.454;2023-03-26T04:05:43;93064.00;;;12.20
41940;BMP180;23057;48.554;14.454;2023-03-26T04:08:24;93052.00;;;12.10
41940;BMP180;23057;48.554;14.454;2023-03-26T04:10:55;93061.00;;;12.10
41940;BMP180;23057;48.554;14.454;2023-03-26T04:13:25;93053.00;;;12.00
41940;BMP180;23057;48.554;14.454;2023-03-26T04:15:56;93046.00;;;12.00
41940;BMP180;23057;48.554;14.454;2023-03-26T04:18:27;93046.00;;;12.00
41940;BMP180;23057;48.554;14.454;2023-03-26T04:20:59;93049.00;;;11.90
41940;BMP180;23057;48.554;14.454;2023-03-26T04:23:33;93050.00;;;12.00
41940;BMP180;23057;48.554;14.454;2023-03-26T04:26:06;93046.00;;;12.00
41940;BMP180;23057;48.554;14.454;2023-03-26T04:28:47;93051.00;;;12.00
41940;BMP180;23057;48.554;14.454;2023-03-26T04:31:24;93049.00;;;12.10
41940;BMP180;23057;48.554;14.454;2023-03-26T04:34:07;93048.00;;;12.10
41940;BMP180;23057;48.554;14.454;2023-03-26T04:36:44;93050.00;;;12.20
41940;BMP180;23057;48.554;14.454;2023-03-26T04:39:15;93040.00;;;12.20
41940;BMP180;23057;48.554;14.454;2023-03-26T04:41:46;93039.00;;;12.20
41940;BMP180;23057;48.554;14.454;2023-03-26T04:44:17;93037.00;;;12.20
41940;BMP180;23057;48.554;14.454;2023-03-26T04:46:51;93035.00;;;12.20
41940;BMP180;23057;48.554;14.454;2023-03-26T04:49:22;93033.00;;;12.20
41940;BMP180;23057;48.554;14.454;2023-03-26T04:51:53;93037.00;;;12.30
41940;BMP180;23057;48.554;14.454;2023-03-26T04:54:23;93026.00;;;12.30
41940;BMP180;23057;48.554;14.454;2023-03-26T04:56:56;93025.00;;;12.30
41940;BMP180;23057;48.554;14.454;2023-03-26T04:59:34;93024.00;;;12.30
41940;BMP180;23057;48.554;14.454;2023-03-26T05:02:06;93022.00;;;12.30
41940;BMP180;23057;48.554;14.454;2023-03-26T05:04:37;93022.00;;;12.20
41940;BMP180;23057;48.554;14.454;2023-03-26T05:07:17;93012.00;;;12.20
41940;BMP180;23057;48.554;14.454;2023-03-26T05:09:50;93018.00;;;12.20
41940;BMP180;23057;48.554;14.454;2023-03-26T05:12:20;93014.00;;;12.20
41940;BMP180;23057;48.554;14.454;2023-03-26T05:14:51;93023.00;;;12.20
41940;BMP180;23057;48.554;14.454;2023-03-26T05:17:23;93015.00;;;12.20
41940;BMP180;23057;48.554;14.454;2023-03-26T05:19:54;93019.00;;;12.20
41940;BMP180;23057;48.554;14.454;2023-03-26T05:22:25;93021.00;;;12.20
41940;BMP180;23057;48.554;14.454;2023-03-26T05:24:56;93010.00;;;12.20
41940;BMP180;23057;48.554;14.454;2023-03-26T05:27:27;93014.00;;;12.20
41940;BMP180;23057;48.554;14.454;2023-03-26T05:30:02;93016.00;;;12.30
41940;BMP180;23057;48.554;14.454;2023-03-26T05:32:34;93005.00;;;12.30
41940;BMP180;23057;48.554;14.454;2023-03-26T05:35:05;93002.00;;;12.30
41940;BMP180;23057;48.554;14.454;2023-03-26T05:37:37;93013.00;;;12.40
41940;BMP180;23057;48.554;14.454;2023-03-26T05:40:08;93014.00;;;12.40
41940;BMP180;23057;48.554;14.454;2023-03-26T05:42:41;93020.00;;;12.40
41940;BMP180;23057;48.554;14.454;2023-03-26T05:45:14;93025.00;;;12.40
41940;BMP180;23057;48.554;14.454;2023-03-26T05:47:45;93022.00;;;12.40
41940;BMP180;23057;48.554;14.454;2023-03-26T05:50:17;93027.00;;;12.30
41940;BMP180;23057;48.554;14.454;2023-03-26T05:52:48;93035.00;;;12.40
41940;BMP180;23057;48.554;14.454;2023-03-26T05:55:18;93028.00;;;12.30
41940;BMP180;23057;48.554;14.454;2023-03-26T05:57:49;93026.00;;;12.30
41940;BMP180;23057;48.554;14.454;2023-03-26T06:00:20;93033.00;;;12.30
41940;BMP180;23057;48.554;14.454;2023-03-26T06:02:51;93022.00;;;12.30
41940;BMP180;23057;48.554;14.454;2023-03-26T06:05:24;93026.00;;;12.30
41940;BMP180;23057;48.554;14.454;2023-03-26T06:07:55;93031.00;;;12.30
41940;BMP180;23057;48.554;14.454;2023-03-26T06:10:26;93026.00;;;12.40
41940;BMP180;23057;48.554;14.454;2023-03-26T06:12:57;93026.00;;;12.50
41940;BMP180;23057;48.554;14.454;2023-03-26T06:15:27;93022.00;;;12.50
41940;BMP180;23057;48.554;14.454;2023-03-26T06:17:58;93020.00;;;12.50
41940;BMP180;23057;48.554;14.454;2023-03-26T06:20:29;93025.00;;;12.60
41940;BMP180;23057;48.554;14.454;2023-03-26T06:22:59;93019.00;;;12.60
41940;BMP180;23057;48.554;14.454;2023-03-26T06:25:30;93024.00;;;12.70
41940;BMP180;23057;48.554;14.454;2023-03-26T06:28:01;93032.00;;;12.70
41940;BMP180;23057;48.554;14.454;2023-03-26T06:30:32;93018.00;;;12.80
41940;BMP180;23057;48.554;14.454;2023-03-26T06:33:02;93022.00;;;12.80
41940;BMP180;23057;48.554;14.454;2023-03-26T06:35:33;93027.00;;;12.80
41940;BMP180;23057;48.554;14.454;2023-03-26T06:38:04;93028.00;;;12.80
41940;BMP180;23057;48.554;14.454;2023-03-26T06:40:37;93026.00;;;12.90
41940;BMP180;23057;48.554;14.454;2023-03-26T06:43:08;93024.00;;;12.90
41940;BMP180;23057;48.554;14.454;2023-03-26T06:45:38;93017.00;;;12.90
41940;BMP180;23057;48.554;14.454;2023-03-26T06:48:09;93015.00;;;12.90
41940;BMP180;23057;48.554;14.454;2023-03-26T06:50:40;93009.00;;;13.00
41940;BMP180;23057;48.554;14.454;2023-03-26T06:53:11;93008.00;;;13.10
41940;BMP180;23057;48.554;14.454;2023-03-26T06:55:41;92994.00;;;13.10
41940;BMP180;23057;48.554;14.454;2023-03-26T06:58:12;93004.00;;;13.20
41940;BMP180;23057;48.554;14.454;2023-03-26T07:00:43;93011.00;;;13.30
41940;BMP180;23057;48.554;14.454;2023-03-26T07:03:14;93006.00;;;13.40
41940;BMP180;23057;48.554;14.454;2023-03-26T07:05:46;93007.00;;;13.50
41940;BMP180;23057;48.554;14.454;2023-03-26T07:08:18;92993.00;;;13.50
41940;BMP180;23057;48.554;14.454;2023-03-26T07:10:48;92995.00;;;13.60
41940;BMP180;23057;48.554;14.454;2023-03-26T07:13:19;92995.00;;;13.60
41940;BMP180;23057;48.554;14.454;2023-03-26T07:15:50;92997.00;;;13.60
41940;BMP180;23057;48.554;14.454;2023-03-26T07:18:21;92993.00;;;13.60
41940;BMP180;23057;48.554;14.454;2023-03-26T07:20:52;92995.00;;;13.60
41940;BMP180;23057;48.554;14.454;2023-03-26T07:23:23;92990.00;;;13.60
41940;BMP180;23057;48.554;14.454;2023-03-26T07:25:54;92986.00;;;13.60
41940;BMP180;23057;48.554;14.454;2023-03-26T07:31:40;92975.00;;;13.70
41940;BMP180;23057;48.554;14.454;2023-03-26T07:40:47;92971.00;;;13.90
41940;BMP180;23057;48.554;14.454;2023-03-26T07:46:30;92969.00;;;14.10
41940;BMP180;23057;48.554;14.454;2023-03-26T07:49:04;92968.00;;;14.20
41940;BMP180;23057;48.554;14.454;2023-03-26T07:51:35;92966.00;;;14.20
41940;BMP180;23057;48.554;14.454;2023-03-26T07:54:09;92951.00;;;14.20
41940;BMP180;23057;48.554;14.454;2023-03-26T07:56:48;92956.00;;;14.20
41940;BMP180;23057;48.554;14.454;2023-03-26T08:02:20;92952.00;;;14.30
41940;BMP180;23057;48.554;14.454;2023-03-26T08:11:10;92935.00;;;14.60
41940;BMP180;23057;48.554;14.454;2023-03-26T08:13:58;92925.00;;;14.60
41940;BMP180;23057;48.554;14.454;2023-03-26T08:16:50;92931.00;;;14.60
41940;BMP180;23057;48.554;14.454;2023-03-26T08:23:12;92917.00;;;14.70
41940;BMP180;23057;48.554;14.454;2023-03-26T08:26:03;92912.00;;;14.90
41940;BMP180;23057;48.554;14.454;2023-03-26T08:29:10;92891.00;;;14.90
41940;BMP180;23057;48.554;14.454;2023-03-26T08:32:08;92887.00;;;14.90
41940;BMP180;23057;48.554;14.454;2023-03-26T08:34:44;92886.00;;;14.90
41940;BMP180;23057;48.554;14.454;2023-03-26T08:37:15;92896.00;;;15.00
41940;BMP180;23057;48.554;14.454;2023-03-26T08:39:52;92895.00;;;15.00
41940;BMP180;23057;48.554;14.454;2023-03-26T08:45:57;92877.00;;;15.00
41940;BMP180;23057;48.554;14.454;2023-03-26T08:55:26;92885.00;;;15.10
41940;BMP180;23057;48.554;14.454;2023-03-26T08:58:44;92878.00;;;15.10
41940;BMP180;23057;48.554;14.454;2023-03-26T09:01:58;92867.00;;;15.10
41940;BMP180;23057;48.554;14.454;2023-03-26T09:05:17;92849.00;;;15.20
41940;BMP180;23057;48.554;14.454;2023-03-26T09:35:28;92807.00;;;15.60
41940;BMP180;23057;48.554;14.454;2023-03-26T09:41:41;92795.00;;;15.80
41940;BMP180;23057;48.554;14.454;2023-03-26T09:45:00;92788.00;;;15.90
41940;BMP180;23057;48.554;14.454;2023-03-26T10:11:22;92747.00;;;16.60
41940;BMP180;23057;48.554;14.454;2023-03-26T10:36:35;92696.00;;;16.50
41940;BMP180;23057;48.554;14.454;2023-03-26T10:46:12;92693.00;;;16.60
41940;BMP180;23057;48.554;14.454;2023-03-26T10:52:36;92677.00;;;16.60
41940;BMP180;23057;48.554;14.454;2023-03-26T10:55:38;92674.00;;;16.70
41940;BMP180;23057;48.554;14.454;2023-03-26T10:58:30;92670.00;;;16.70
41940;BMP180;23057;48.554;14.454;2023-03-26T11:08:45;92656.00;;;16.70
41940;BMP180;23057;48.554;14.454;2023-03-26T11:11:56;92648.00;;;16.70
41940;BMP180;23057;48.554;14.454;2023-03-26T11:15:37;92639.00;;;16.80
41940;BMP180;23057;48.554;14.454;2023-03-26T11:31:18;92632.00;;;17.00
41940;BMP180;23057;48.554;14.454;2023-03-26T11:34:21;92641.00;;;17.00
41940;BMP180;23057;48.554;14.454;2023-03-26T11:37:49;92632.00;;;17.00
41940;BMP180;23057;48.554;14.454;2023-03-26T11:40:37;92638.00;;;16.90
41940;BMP180;23057;48.554;14.454;2023-03-26T11:43:33;92639.00;;;16.90
41940;BMP180;23057;48.554;14.454;2023-03-26T11:46:26;92645.00;;;17.00
41940;BMP180;23057;48.554;14.454;2023-03-26T11:49:11;92646.00;;;17.00
41940;BMP180;23057;48.554;14.454;2023-03-26T11:51:54;92652.00;;;16.90
41940;BMP180;23057;48.554;14.454;2023-03-26T11:54:34;92646.00;;;16.90
41940;BMP180;23057;48.554;14.454;2023-03-26T11:57:27;92651.00;;;16.80
41940;BMP180;23057;48.554;14.454;2023-03-26T12:00:12;92655.00;;;16.80
41940;BMP180;23057;48.554;14.454;2023-03-26T12:02:47;92656.00;;;16.80
41940;BMP180;23057;48.554;14.454;2023-03-26T12:05:21;92652.00;;;16.80
41940;BMP180;23057;48.554;14.454;2023-03-26T12:08:01;92661.00;;;16.80
41940;BMP180;23057;48.554;14.454;2023-03-26T12:10:37;92660.00;;;16.80
41940;BMP180;23057;48.554;14.454;2023-03-26T12:13:36;92649.00;;;16.70
41940;BMP180;23057;48.554;14.454;2023-03-26T12:16:21;92648.00;;;16.50
41940;BMP180;23057;48.554;14.454;2023-03-26T12:19:08;92651.00;;;16.30
41940;BMP180;23057;48.554;14.454;2023-03-26T12:21:53;92643.00;;;16.20
41940;BMP180;23057;48.554;14.454;2023-03-26T12:27:29;92651.00;;;15.80
41940;BMP180;23057;48.554;14.454;2023-03-26T12:30:26;92638.00;;;15.60
41940;BMP180;23057;48.554;14.454;2023-03-26T12:33:27;92633.00;;;15.50
41940;BMP180;23057;48.554;14.454;2023-03-26T12:42:28;92585.00;;;15.50
41940;BMP180;23057;48.554;14.454;2023-03-26T12:45:18;92574.00;;;15.50
41940;BMP180;23057;48.554;14.454;2023-03-26T12:48:16;92584.00;;;15.60
41940;BMP180;23057;48.554;14.454;2023-03-26T12:57:31;92574.00;;;15.60
41940;BMP180;23057;48.554;14.454;2023-03-26T13:00:39;92575.00;;;15.70
41940;BMP180;23057;48.554;14.454;2023-03-26T13:13:41;92533.00;;;16.00
41940;BMP180;23057;48.554;14.454;2023-03-26T13:23:26;92537.00;;;15.90
41940;BMP180;23057;48.554;14.454;2023-03-26T13:26:45;92535.00;;;15.90
41940;BMP180;23057;48.554;14.454;2023-03-26T13:29:59;92528.00;;;15.90
41940;BMP180;23057;48.554;14.454;2023-03-26T13:35:55;92519.00;;;16.00
41940;BMP180;23057;48.554;14.454;2023-03-26T13:47:58;92518.00;;;16.10
41940;BMP180;23057;48.554;14.454;2023-03-26T13:51:03;92508.00;;;16.10
41940;BMP180;23057;48.554;14.454;2023-03-26T13:54:05;92511.00;;;16.10
41940;BMP180;23057;48.554;14.454;2023-03-26T13:57:05;92508.00;;;16.10
41940;BMP180;23057;48.554;14.454;2023-03-26T14:00:05;92505.00;;;16.10
41940;BMP180;23057;48.554;14.454;2023-03-26T14:02:45;92514.00;;;16.10
41940;BMP180;23057;48.554;14.454;2023-03-26T14:05:34;92516.00;;;16.10
41940;BMP180;23057;48.554;14.454;2023-03-26T14:08:21;92504.00;;;16.00
41940;BMP180;23057;48.554;14.454;2023-03-26T14:11:15;92513.00;;;15.90
41940;BMP180;23057;48.554;14.454;2023-03-26T14:13:51;92522.00;;;15.80
41940;BMP180;23057;48.554;14.454;2023-03-26T14:16:37;92510.00;;;15.70
41940;BMP180;23057;48.554;14.454;2023-03-26T14:19:28;92511.00;;;15.70
41940;BMP180;23057;48.554;14.454;2023-03-26T14:22:34;92517.00;;;15.70
41940;BMP180;23057;48.554;14.454;2023-03-26T14:25:18;92534.00;;;15.60
41940;BMP180;23057;48.554;14.454;2023-03-26T14:31:25;92536.00;;;15.40
41940;BMP180;23057;48.554;14.454;2023-03-26T14:49:36;92485.00;;;15.10
41940;BMP180;23057;48.554;14.454;2023-03-26T15:25:25;92455.00;;;15.00
41940;BMP180;23057;48.554;14.454;2023-03-26T15:44:04;92460.00;;;15.10
41940;BMP180;23057;48.554;14.454;2023-03-26T16:06:47;92451.00;;;15.20
41940;BMP180;23057;48.554;14.454;2023-03-26T16:22:12;92457.00;;;15.20
41940;BMP180;23057;48.554;14.454;2023-03-26T16:25:34;92446.00;;;15.20
41940;BMP180;23057;48.554;14.454;2023-03-26T16:31:30;92451.00;;;15.20
41940;BMP180;23057;48.554;14.454;2023-03-26T16:37:37;92441.00;;;15.20
41940;BMP180;23057;48.554;14.454;2023-03-26T16:41:06;92437.00;;;15.10
41940;BMP180;23057;48.554;14.454;2023-03-26T16:44:24;92440.00;;;15.20
41940;BMP180;23057;48.554;14.454;2023-03-26T17:06:12;92450.00;;;15.00
41940;BMP180;23057;48.554;14.454;2023-03-26T17:08:59;92453.00;;;15.00
41940;BMP180;23057;48.554;14.454;2023-03-26T17:14:52;92455.00;;;15.00
41940;BMP180;23057;48.554;14.454;2023-03-26T17:20:06;92451.00;;;15.00
41940;BMP180;23057;48.554;14.454;2023-03-26T17:22:51;92459.00;;;15.00
41940;BMP180;23057;48.554;14.454;2023-03-26T17:28:29;92465.00;;;15.00
41940;BMP180;23057;48.554;14.454;2023-03-26T17:44:58;92428.00;;;14.70
41940;BMP180;23057;48.554;14.454;2023-03-26T17:47:51;92421.00;;;14.70
41940;BMP180;23057;48.554;14.454;2023-03-26T17:50:32;92430.00;;;14.70
41940;BMP180;23057;48.554;14.454;2023-03-26T17:56:02;92433.00;;;14.60
41940;BMP180;23057;48.554;14.454;2023-03-26T17:58:40;92446.00;;;14.60
41940;BMP180;23057;48.554;14.454;2023-03-26T18:01:34;92450.00;;;14.60
41940;BMP180;23057;48.554;14.454;2023-03-26T18:04:13;92454.00;;;14.60
41940;BMP180;23057;48.554;14.454;2023-03-26T18:18:51;92451.00;;;14.50
41940;BMP180;23057;48.554;14.454;2023-03-26T18:21:37;92442.00;;;14.50
41940;BMP180;23057;48.554;14.454;2023-03-26T18:24:14;92422.00;;;14.50
41940;BMP180;23057;48.554;14.454;2023-03-26T18:26:55;92412.00;;;14.50
41940;BMP180;23057;48.554;14.454;2023-03-26T18:29:33;92416.00;;;14.50
41940;BMP180;23057;48.554;14.454;2023-03-26T18:34:46;92395.00;;;14.40
41940;BMP180;23057;48.554;14.454;2023-03-26T18:37:32;92383.00;;;14.30
41940;BMP180;23057;48.554;14.454;2023-03-26T18:40:08;92367.00;;;14.30
41940;BMP180;23057;48.554;14.454;2023-03-26T18:42:47;92367.00;;;14.30
41940;BMP180;23057;48.554;14.454;2023-03-26T18:45:29;92365.00;;;14.20
41940;BMP180;23057;48.554;14.454;2023-03-26T18:48:17;92385.00;;;14.20
41940;BMP180;23057;48.554;14.454;2023-03-26T18:50:58;92395.00;;;14.30
41940;BMP180;23057;48.554;14.454;2023-03-26T18:53:37;92391.00;;;14.30
41940;BMP180;23057;48.554;14.454;2023-03-26T18:58:59;92396.00;;;14.30
41940;BMP180;23057;48.554;14.454;2023-03-26T19:01:34;92398.00;;;14.40
41940;BMP180;23057;48.554;14.454;2023-03-26T19:04:06;92406.00;;;14.30
41940;BMP180;23057;48.554;14.454;2023-03-26T19:06:40;92402.00;;;14.30
41940;BMP180;23057;48.554;14.454;2023-03-26T19:09:12;92401.00;;;14.30
41940;BMP180;23057;48.554;14.454;2023-03-26T19:11:43;92399.00;;;14.30
41940;BMP180;23057;48.554;14.454;2023-03-26T19:14:17;92395.00;;;14.20
41940;BMP180;23057;48.554;14.454;2023-03-26T19:16:52;92393.00;;;14.20
41940;BMP180;23057;48.554;14.454;2023-03-26T19:19:35;92384.00;;;14.20
41940;BMP180;23057;48.554;14.454;2023-03-26T19:22:08;92376.00;;;14.10
41940;BMP180;23057;48.554;14.454;2023-03-26T19:24:41;92363.00;;;14.10
41940;BMP180;23057;48.554;14.454;2023-03-26T19:27:12;92359.00;;;14.10
41940;BMP180;23057;48.554;14.454;2023-03-26T19:29:43;92356.00;;;14.10
41940;BMP180;23057;48.554;14.454;2023-03-26T19:32:17;92355.00;;;14.10
41940;BMP180;23057;48.554;14.454;2023-03-26T19:34:51;92359.00;;;14.10
41940;BMP180;23057;48.554;14.454;2023-03-26T19:37:24;92358.00;;;14.10
41940;BMP180;23057;48.554;14.454;2023-03-26T19:40:20;92357.00;;;14.00
41940;BMP180;23057;48.554;14.454;2023-03-26T19:43:00;92341.00;;;14.00
41940;BMP180;23057;48.554;14.454;2023-03-26T19:45:32;92331.00;;;13.90
41940;BMP180;23057;48.554;14.454;2023-03-26T19:48:07;92319.00;;;13.90
41940;BMP180;23057;48.554;14.454;2023-03-26T19:50:52;92316.00;;;13.90
41940;BMP180;23057;48.554;14.454;2023-03-26T19:53:48;92316.00;;;13.90
41940;BMP180;23057;48.554;14.454;2023-03-26T19:56:33;92316.00;;;13.90
41940;BMP180;23057;48.554;14.454;2023-03-26T19:59:14;92312.00;;;13.90
41940;BMP180;23057;48.554;14.454;2023-03-26T20:01:57;92314.00;;;13.90
41940;BMP180;23057;48.554;14.454;2023-03-26T20:04:37;92309.00;;;13.90
41940;BMP180;23057;48.554;14.454;2023-03-26T20:07:22;92297.00;;;13.90
41940;BMP180;23057;48.554;14.454;2023-03-26T20:10:10;92312.00;;;13.90
41940;BMP180;23057;48.554;14.454;2023-03-26T20:12:56;92314.00;;;13.90
41940;BMP180;23057;48.554;14.454;2023-03-26T20:15:36;92315.00;;;13.90
41940;BMP180;23057;48.554;14.454;2023-03-26T20:18:22;92312.00;;;13.90
41940;BMP180;23057;48.554;14.454;2023-03-26T20:21:01;92318.00;;;13.80
41940;BMP180;23057;48.554;14.454;2023-03-26T20:23:46;92307.00;;;13.80
41940;BMP180;23057;48.554;14.454;2023-03-26T20:26:29;92298.00;;;13.80
41940;BMP180;23057;48.554;14.454;2023-03-26T20:29:14;92302.00;;;13.80
41940;BMP180;23057;48.554;14.454;2023-03-26T20:32:03;92311.00;;;13.70
41940;BMP180;23057;48.554;14.454;2023-03-26T20:34:58;92317.00;;;13.70
41940;BMP180;23057;48.554;14.454;2023-03-26T20:37:56;92316.00;;;13.70
41940;BMP180;23057;48.554;14.454;2023-03-26T20:40:35;92317.00;;;13.70
41940;BMP180;23057;48.554;14.454;2023-03-26T20:43:18;92310.00;;;13.80
41940;BMP180;23057;48.554;14.454;2023-03-26T20:45:59;92325.00;;;13.70
41940;BMP180;23057;48.554;14.454;2023-03-26T20:48:40;92320.00;;;13.60
41940;BMP180;23057;48.554;14.454;2023-03-26T20:51:25;92319.00;;;13.40
41940;BMP180;23057;48.554;14.454;2023-03-26T20:54:12;92311.00;;;13.30
41940;BMP180;23057;48.554;14.454;2023-03-26T20:56:53;92313.00;;;13.30
41940;BMP180;23057;48.554;14.454;2023-03-26T20:59:39;92307.00;;;13.30
41940;BMP180;23057;48.554;14.454;2023-03-26T21:02:22;92301.00;;;13.20
41940;BMP180;23057;48.554;14.454;2023-03-26T21:05:09;92299.00;;;13.20
41940;BMP180;23057;48.554;14.454;2023-03-26T21:08:15;92310.00;;;13.20
41940;BMP180;23057;48.554;14.454;2023-03-26T21:11:22;92307.00;;;13.20
41940;BMP180;23057;48.554;14.454;2023-03-26T21:14:44;92304.00;;;13.10
41940;BMP180;23057;48.554;14.454;2023-03-26T21:17:27;92299.00;;;13.00
41940;BMP180;23057;48.554;14.454;2023-03-26T21:20:10;92298.00;;;13.00